Date,TemperatureHighF,TemperatureAvgF,TemperatureLowF,DewpointHighF,DewpointAvgF,DewpointLowF,HumidityHigh,HumidityAvg,HumidityLow,PressureMaxIn,PressureMinIn,WindSpeedMaxMPH,WindSpeedAvgMPH,GustSpeedMaxMPH,PrecipitationSumIn
2013-4-16,64.2,56.1,54.3,50.2,45.5,-99.9,83,72,68,30.33,30.09,27,-17,27,0.00
2013-4-17,70.5,56.1,45.1,51.1,35.8,23.5,88,51,21,30.29,30.08,21,7,21,0.01
2013-4-18,62.6,50.7,37.4,45.0,36.6,29.1,83,61,32,30.34,30.10,29,6,29,0.00
2013-4-19,73.6,62.1,51.4,59.9,54.9,44.8,95,78,61,30.10,29.63,27,7,27,0.11
2013-4-20,63.3,50.7,40.6,57.9,32.1,15.6,88,54,22,30.27,29.63,28,10,28,0.28
2013-4-21,56.8,42.3,33.1,27.9,17.8,8.2,62,40,18,30.59,30.26,28,8,28,0.00
2013-4-22,62.2,45.0,32.0,35.2,27.6,-18.4,79,54,10,30.66,30.49,20,4,20,0.00
2013-4-23,49.3,42.3,32.0,38.1,33.2,-18.4,84,70,10,30.50,30.09,11,4,11,0.00
2013-4-24,76.1,54.4,32.0,50.0,40.8,-18.4,83,63,10,30.09,29.80,22,6,22,0.00
2013-4-25,66.7,53.2,32.0,49.3,28.2,-18.4,85,44,10,30.24,29.82,25,2,21,0.00
2013-4-26,54.7,38.8,32.0,33.4,29.2,-18.4,83,70,10,30.35,30.24,13,2,13,0.00
2013-4-27,57.6,50.9,51.8,34.2,25.1,-99.9,49,42,38,30.30,30.28,9,-57,9,0.00
2013-4-28,75.6,55.6,38.1,43.2,35.1,25.9,85,49,24,30.29,30.17,24,4,24,0.00
2013-4-29,59.4,54.4,48.6,45.5,40.1,31.6,74,59,45,30.23,30.17,16,4,16,0.00
2013-4-30,73.8,58.7,47.5,43.0,29.3,12.4,74,40,11,30.32,30.20,16,3,16,0.00
2013-5-1,77.4,55.8,35.6,43.5,32.8,14.4,82,49,11,30.46,30.32,17,3,17,0.00
2013-5-2,84.0,60.8,38.8,45.0,38.8,23.4,94,52,13,30.45,30.26,17,3,17,0.00
2013-5-3,74.3,59.2,47.8,43.2,35.8,20.1,73,44,16,30.44,30.31,14,3,14,0.00
2013-5-4,78.8,56.7,41.0,45.7,41.4,31.5,97,62,24,30.36,30.17,20,3,20,0.00
2013-5-5,76.1,52.8,36.5,44.6,37.5,24.1,97,63,17,30.28,30.15,19,3,19,0.00
2013-5-6,78.3,56.3,39.0,52.3,44.8,37.9,97,69,37,30.25,30.10,17,3,17,0.00
2013-5-7,82.4,61.8,44.2,55.4,49.5,43.3,98,69,29,30.16,30.06,18,3,18,0.00
2013-5-8,68.4,60.9,32.0,63.0,56.1,-18.4,95,85,10,30.12,29.98,11,1,10,0.33
2013-5-9,68.4,58.6,32.0,59.0,52.8,-18.4,93,83,10,30.01,29.86,11,1,9,0.31
2013-5-10,84.0,65.4,32.0,58.1,51.3,-18.4,93,65,10,29.97,29.87,13,3,13,0.00
2013-5-11,67.3,62.2,32.0,58.8,55.4,-18.4,86,79,10,29.87,29.67,16,3,16,0.39
2013-5-12,71.2,59.2,32.0,57.7,40.1,-18.4,86,55,10,29.87,29.61,24,6,24,0.00
2013-5-13,55.0,46.7,32.0,32.5,28.9,-18.4,63,51,10,29.98,29.86,17,5,17,0.00
2013-5-15,59.7,55.6,51.8,48.0,47.2,46.0,82,73,65,29.70,29.67,5,0,5,0.05
2013-5-16,85.5,65.0,44.2,51.8,40.0,21.2,89,50,11,29.81,29.68,26,4,26,0.00
2013-5-17,72.5,59.5,48.7,44.1,40.2,33.6,72,50,27,30.19,29.81,22,7,22,0.00
2013-5-18,76.1,56.7,41.5,49.8,43.5,37.8,87,64,35,30.29,30.19,18,2,18,0.00
2013-5-19,58.3,55.3,51.4,52.5,49.5,44.2,85,81,75,30.32,30.15,11,2,11,0.17
2013-5-20,88.3,68.4,55.9,63.7,56.8,51.6,88,69,45,30.16,29.93,11,2,11,0.00
2013-5-21,94.5,75.9,61.3,69.3,61.6,55.9,88,64,42,29.96,29.79,20,3,20,0.00
2013-5-22,86.0,69.1,57.6,65.5,58.1,50.5,85,69,51,29.93,29.80,15,3,15,0.69
2013-5-23,74.8,67.7,64.4,65.7,61.1,57.7,86,80,68,29.87,29.73,14,2,14,2.19
2013-5-24,67.1,56.0,45.0,61.9,50.3,39.4,87,81,71,29.90,29.64,28,8,28,0.32
2013-5-25,47.7,45.0,43.0,41.4,39.1,36.5,84,80,68,29.90,29.82,30,13,30,0.57
2013-5-26,63.5,51.6,42.1,41.4,38.3,36.3,86,61,42,30.15,29.84,35,9,35,0.00
2013-5-27,78.1,56.6,34.7,46.4,38.4,28.4,92,58,22,30.19,30.08,21,2,21,0.00
2013-5-28,76.8,56.5,42.6,54.7,47.2,40.1,91,74,36,30.20,30.12,15,2,15,0.12
2013-5-29,85.8,68.4,57.2,66.7,59.0,53.6,90,74,53,30.13,29.96,15,2,15,0.02
2013-5-30,96.8,78.2,61.5,69.4,63.0,58.6,91,63,38,30.10,30.02,16,2,16,0.00
2013-5-31,99.1,79.3,62.6,70.5,62.8,57.9,90,61,33,30.11,29.96,14,2,14,5.83
2013-6-1,95.7,77.9,60.6,69.1,62.9,56.8,88,63,42,30.00,29.87,17,3,17,0.00
2013-6-2,92.3,78.6,67.3,67.5,63.4,60.4,81,61,45,29.89,29.71,18,4,18,0.00
2013-6-3,82.4,71.3,60.8,63.5,58.9,45.0,85,66,51,29.88,29.76,15,4,15,0.60
2013-6-4,79.9,62.4,51.8,49.8,43.7,40.1,75,52,31,30.10,29.88,19,6,19,0.00
2013-6-5,83.5,63.3,47.1,52.9,45.7,40.6,83,56,29,30.19,30.08,14,2,14,0.00
2013-6-6,77.2,60.2,47.1,57.0,50.1,43.5,89,71,50,30.15,30.02,16,2,16,0.17
2013-6-7,62.2,58.7,55.8,56.1,53.5,50.2,86,83,79,30.03,29.68,11,1,11,1.97
2013-6-8,81.7,65.3,54.0,60.6,54.5,49.3,86,69,50,30.04,29.61,15,4,15,0.70
2013-6-9,86.5,68.8,55.0,60.1,55.4,52.2,91,65,40,30.16,30.03,10,2,10,0.00
2013-6-10,78.1,63.5,32.0,61.0,55.6,-18.4,86,76,10,30.16,29.88,9,1,11,1.16
2013-6-11,83.5,67.6,59.7,65.7,57.7,51.8,87,72,53,29.88,29.57,22,3,22,0.46
2013-6-12,75.0,65.7,32.0,53.8,50.6,-18.4,83,59,10,29.83,29.64,21,6,21,0.00
2013-6-13,59.9,55.6,50.9,53.8,50.8,47.5,89,84,78,29.83,29.56,13,1,13,1.58
2013-6-14,82.0,60.5,32.0,58.3,50.0,-18.4,84,70,11,29.78,29.57,14,4,14,0.60
2013-6-17,91.2,77.5,62.1,64.4,58.6,54.0,79,54,32,29.91,29.80,19,4,19,0.00
2013-6-18,89.1,67.9,57.6,64.6,57.2,53.4,87,71,46,29.91,29.82,10,1,10,0.00
2013-7-14,-200.0,0.0,200.0,-99.9,-99.9,-99.9,0,0,100,0.00,40.00,0,-999,0,0.00
2013-7-16,94.5,86.0,73.2,68.9,63.5,60.6,66,48,40,30.16,30.10,19,5,19,0.00
2013-7-17,100.9,83.2,69.4,71.1,63.7,58.6,72,53,35,30.17,30.01,8,2,8,0.00
2013-7-18,101.8,84.9,72.0,73.0,65.3,60.4,69,53,38,30.03,29.92,11,2,11,0.00
2013-7-19,101.5,87.3,73.0,72.5,66.8,62.1,72,52,40,29.93,29.74,20,3,20,0.00
2013-7-20,100.0,85.5,72.9,70.3,64.0,57.4,60,49,40,29.82,29.67,16,3,16,0.01
2013-7-21,94.6,77.9,67.3,65.8,59.5,55.8,68,54,35,29.94,29.81,11,1,11,0.01
2013-7-22,91.8,76.2,64.8,65.8,60.6,55.4,73,59,44,29.95,29.80,11,1,11,0.09
2013-7-23,93.0,77.8,72.3,68.2,62.8,59.0,73,61,43,29.80,29.52,17,2,17,1.44
2013-7-24,82.6,73.4,63.0,64.2,58.1,47.5,73,60,47,29.93,29.58,18,5,18,0.00
2013-7-25,70.7,63.9,59.5,53.2,49.3,46.0,69,59,54,30.06,29.92,15,3,15,0.01
2013-7-26,85.5,69.3,62.1,62.2,54.3,50.9,72,60,42,30.01,29.95,14,3,14,0.01
2013-7-27,90.1,72.0,59.2,62.8,56.2,51.1,77,59,38,30.03,29.93,14,2,14,0.00
2013-7-28,86.4,71.7,63.0,62.8,57.4,53.6,73,62,47,29.98,29.91,11,2,11,0.05
2013-7-29,91.2,75.6,64.0,64.4,58.4,50.0,74,57,40,30.06,29.92,14,2,14,0.00
2013-7-30,85.8,69.2,32.0,60.8,52.1,-18.4,75,56,10,30.12,30.05,13,3,14,0.00
2013-7-31,88.0,70.5,56.5,59.9,54.1,49.3,78,58,36,30.13,30.00,11,1,11,0.00
2013-8-1,79.3,66.5,59.5,59.4,55.4,51.6,76,68,49,30.02,29.80,17,1,17,0.35
2013-8-2,88.2,74.0,63.5,62.6,57.4,53.6,75,58,38,29.86,29.75,15,3,15,0.02
2013-8-3,86.2,71.1,63.0,62.4,55.2,51.3,72,58,45,29.86,29.78,16,3,16,0.00
2013-8-4,82.9,66.8,56.7,56.3,52.4,46.6,79,61,40,29.93,29.80,28,3,28,0.00
2013-8-5,80.1,65.1,53.8,52.2,46.5,41.4,73,53,29,30.02,29.91,20,4,20,0.00
2013-8-6,86.0,66.3,49.8,60.4,50.6,43.3,80,59,37,30.10,30.01,12,2,12,0.00
2013-8-7,85.8,67.9,54.5,61.2,53.7,47.3,78,61,45,30.14,30.03,14,2,14,0.00
2013-8-8,89.1,75.6,69.6,64.2,59.5,56.1,68,58,45,30.04,29.97,19,3,19,0.00
2013-8-9,84.9,74.9,72.1,65.5,62.3,58.6,71,65,51,29.98,29.75,20,2,20,2.27
2013-8-10,89.1,73.4,59.9,64.2,57.2,51.1,75,58,37,30.03,29.81,15,2,15,0.00
2013-8-11,85.6,67.3,52.3,59.4,51.4,44.6,77,59,37,30.09,29.98,9,2,9,0.00
2013-8-12,88.0,71.2,59.4,61.0,54.7,51.3,76,58,35,30.01,29.89,11,1,11,0.00
2013-8-13,81.5,69.3,62.8,61.0,56.5,52.9,72,64,49,29.90,29.66,14,1,14,0.19
2013-8-14,76.3,64.9,54.7,55.4,48.9,45.1,73,57,42,29.99,29.71,26,6,26,0.00
2013-8-15,82.8,63.2,49.5,54.7,48.2,41.4,81,61,33,30.11,29.98,11,2,11,0.00
2013-8-16,86.4,65.5,51.4,57.0,49.7,44.8,79,60,31,30.18,30.09,10,1,10,0.00
2013-8-17,88.0,67.8,53.2,61.0,52.5,46.6,79,60,34,30.25,30.17,8,1,8,0.00
2013-8-18,83.8,67.8,57.9,61.5,53.7,49.8,75,62,43,30.24,30.09,8,1,8,0.00
2013-8-19,84.2,69.6,57.0,61.5,55.1,49.6,78,61,46,30.09,29.98,8,1,8,0.00
2013-8-20,90.9,71.8,58.1,62.2,56.5,50.7,77,61,37,30.10,30.01,11,2,11,0.00
2013-8-21,93.6,73.3,59.2,63.9,57.0,51.3,76,59,35,30.15,30.01,9,1,9,0.00
2013-8-22,84.9,71.0,61.7,63.0,57.8,53.2,74,64,49,30.03,29.83,14,2,14,0.00
2013-8-23,80.8,72.8,66.7,59.4,55.6,53.1,71,56,43,29.98,29.83,18,7,18,0.00
2013-9-8,-200.0,0.0,200.0,-99.9,-99.9,-99.9,0,0,100,0.00,40.00,0,-999,0,0.00
2013-9-16,70.3,61.5,51.1,52.2,47.2,40.3,67,60,53,30.22,30.02,17,6,17,0.00
2013-9-17,70.7,52.5,39.9,44.4,37.4,31.1,81,59,26,30.39,30.22,14,3,14,0.00
2013-9-18,77.4,55.0,40.6,50.4,42.1,36.3,86,66,29,30.32,30.13,10,1,10,0.00
2013-9-19,82.9,58.1,41.0,55.6,45.4,36.5,85,66,33,30.16,30.02,8,1,8,0.00
2013-9-20,85.6,61.6,43.5,59.4,48.1,38.5,84,65,33,30.06,29.96,12,1,12,0.00
2013-9-21,74.3,64.4,53.6,58.8,53.1,46.0,78,67,56,29.99,29.62,21,4,21,0.13
2013-9-22,72.9,61.5,52.3,59.2,48.7,39.0,76,63,47,29.87,29.59,18,5,18,1.30
2013-9-23,63.3,52.7,41.2,44.1,39.3,34.3,77,61,46,30.02,29.86,21,6,21,0.00
2013-9-24,72.9,53.2,37.6,47.8,39.7,31.3,79,62,36,30.01,29.82,21,4,21,0.00
2013-9-25,74.8,55.9,42.1,52.0,43.5,-18.4,80,65,42,29.93,29.84,14,3,14,0.00
2013-9-26,74.5,58.4,49.6,52.2,46.7,-18.4,78,66,44,30.08,29.92,12,2,12,0.00
2013-9-27,65.8,55.2,32.0,50.2,45.1,-18.4,82,70,10,30.25,30.08,5,1,5,0.00
2013-9-28,80.1,58.8,46.6,54.7,46.9,41.2,83,67,35,30.30,30.21,9,1,9,0.01
2013-9-29,79.2,57.8,45.9,55.6,47.0,41.0,85,69,43,30.22,30.05,11,1,11,0.00
2013-9-30,79.5,57.7,44.6,55.2,46.1,39.6,85,68,39,30.07,29.93,8,1,9,0.01
2013-10-1,83.8,60.7,32.0,59.5,49.1,-18.4,85,68,10,29.98,29.86,14,2,14,0.01
2013-10-2,86.4,64.1,32.0,62.6,52.1,-18.4,83,67,10,29.98,29.87,16,2,16,0.00
2013-10-3,83.5,62.5,49.5,55.8,49.2,-18.4,84,65,29,30.10,29.98,8,1,8,0.01
2013-10-4,88.5,65.3,53.4,63.5,52.9,46.8,80,65,46,30.04,29.93,8,1,8,0.00
2013-10-5,84.6,68.0,60.6,62.8,54.9,51.3,73,64,48,30.08,29.99,5,1,5,0.18
2013-10-6,64.8,62.0,59.5,57.2,54.0,51.3,77,75,71,30.11,30.02,11,1,11,1.38
2013-10-7,76.5,65.8,56.3,61.3,55.9,46.2,78,70,58,30.03,29.72,30,4,30,0.50
2013-10-8,65.7,54.4,45.7,48.0,42.0,37.6,84,65,40,30.32,29.91,20,3,20,0.01
2013-10-9,68.4,52.3,40.6,45.9,41.0,36.1,84,67,43,30.40,30.28,9,1,9,0.00
2013-10-10,63.0,53.9,45.5,49.3,43.8,38.8,78,69,61,30.29,30.09,11,2,11,0.00
2013-10-11,71.2,61.7,54.1,54.7,48.7,42.4,68,63,56,30.10,30.01,15,3,15,0.00
2013-10-12,75.4,58.1,44.8,54.5,45.9,38.8,81,65,45,30.29,30.08,13,2,13,0.00
2013-10-13,72.3,56.2,45.9,51.4,44.7,39.7,81,66,46,30.36,30.27,12,1,12,0.00
2013-10-14,73.0,53.5,38.5,50.7,42.8,34.7,86,69,42,30.34,30.18,8,1,8,0.00
2013-10-15,78.8,57.9,46.6,55.6,45.7,38.8,83,66,42,30.22,30.08,14,2,14,0.00
2013-10-16,64.8,54.4,44.6,50.4,44.7,37.8,79,70,58,30.10,29.88,11,1,11,0.00
2013-10-17,82.9,65.4,56.5,59.4,52.7,48.4,75,65,42,29.88,29.64,14,3,14,0.01
2013-10-18,72.7,61.8,48.0,55.6,45.4,37.8,74,56,35,29.93,29.60,21,6,21,0.02
2013-10-19,69.3,52.2,37.4,47.1,40.1,31.1,84,65,36,29.95,29.69,25,2,25,0.08
2013-10-20,68.0,53.7,39.6,47.1,38.8,31.8,79,59,33,30.01,29.68,20,4,20,0.00
2013-10-21,71.2,50.4,33.1,45.7,36.1,28.0,85,62,29,30.10,29.93,17,2,17,0.00
2013-10-22,69.3,51.1,38.3,48.9,40.9,34.0,85,69,48,29.94,29.68,15,2,15,0.00
2013-10-23,58.1,43.8,32.5,38.1,32.8,27.3,85,67,38,29.77,29.56,14,1,14,0.00
2013-10-24,57.6,45.5,37.0,34.5,30.0,22.6,76,56,31,29.91,29.67,22,6,22,0.00
2013-10-25,54.0,42.2,32.2,32.7,29.0,25.2,75,60,43,30.15,29.90,19,4,19,0.00
2013-10-26,57.7,42.2,25.7,37.6,27.5,19.6,80,59,31,30.14,29.83,29,4,29,0.00
2013-10-27,61.2,49.0,37.0,37.6,31.4,25.0,71,52,30,30.05,29.77,17,5,17,0.00
2013-10-28,64.4,44.4,28.0,37.9,29.7,21.0,80,59,32,30.28,30.05,20,3,20,0.00
2013-10-29,56.7,42.8,32.7,31.1,27.2,23.0,73,55,32,30.39,30.27,10,2,118,0.00
2013-10-30,55.2,41.9,32.7,40.3,31.9,25.0,81,68,53,30.31,29.75,4,0,4,0.00
2013-10-31,60.6,48.1,34.2,51.4,40.3,28.0,82,74,67,30.19,29.75,11,1,11,0.25
2013-11-1,72.7,62.4,48.9,54.7,50.0,41.0,75,64,48,29.76,29.47,28,6,28,0.26
2013-11-2,72.5,53.3,41.4,48.6,41.0,35.1,80,65,37,29.73,29.56,16,2,16,0.00
2013-11-3,47.7,40.7,30.2,38.5,29.1,17.6,75,64,52,30.40,29.73,26,8,26,0.00
2013-11-4,53.2,35.0,25.3,22.8,14.4,-10.5,70,47,17,30.62,30.40,11,2,11,0.00
2013-11-5,57.9,41.4,26.8,39.4,29.2,18.1,75,62,44,30.63,30.44,12,1,11,0.00
2013-11-6,61.0,49.1,34.5,44.1,38.1,-10.5,79,66,54,30.45,30.02,20,3,20,0.00
2013-11-7,61.9,52.7,40.5,49.1,42.3,29.8,72,68,63,30.02,29.68,26,5,26,0.14
2013-11-8,51.4,40.9,32.0,30.7,26.9,-10.5,73,58,15,30.11,29.84,27,6,27,0.00
2013-11-9,52.9,40.2,29.5,31.1,25.8,-10.5,75,57,15,30.20,29.94,16,2,16,0.00
2013-11-10,61.9,46.4,39.9,37.8,32.5,-10.5,71,59,37,29.94,29.73,26,5,27,0.01
2013-11-11,58.1,46.9,32.0,31.5,27.9,-10.5,61,48,15,30.11,29.88,25,6,25,0.00
2013-11-12,50.5,34.4,27.3,33.8,20.9,-10.5,74,58,46,30.20,29.86,25,7,25,0.05
2013-11-13,39.4,30.0,23.9,17.2,10.3,-10.5,57,45,15,30.29,30.16,22,6,22,0.00
2013-11-14,32.0,29.2,26.4,18.3,16.4,-10.5,65,58,55,30.17,30.10,6,1,6,0.00
2013-11-24,25.2,23.2,21.6,5.5,-2.9,-99.9,46,34,18,30.24,30.14,29,-1,29,0.00
2013-11-25,41.0,26.7,14.0,13.5,6.7,-0.8,65,44,21,30.39,30.24,15,4,15,0.00
2013-11-26,39.6,34.4,31.6,32.0,19.8,10.4,81,56,40,30.27,29.83,15,2,15,0.40
2013-11-27,55.6,43.6,34.0,50.2,37.2,24.4,85,78,66,29.83,29.26,26,8,28,2.29
2013-11-28,35.6,28.9,22.3,24.4,9.5,-0.8,68,45,25,30.40,29.59,36,9,36,0.00
2013-11-29,39.6,27.6,22.1,19.6,13.9,7.2,74,57,42,30.68,30.39,14,3,14,0.00
2013-11-30,39.0,26.3,14.4,17.1,8.2,-2.9,73,49,20,30.71,30.33,9,2,11,0.00
2013-12-1,49.1,36.7,29.7,34.2,25.8,16.3,79,65,54,30.33,29.97,5,1,5,0.00
2013-12-2,45.9,33.5,27.1,34.0,27.0,21.2,83,77,59,29.97,29.85,4,0,4,0.00
2013-12-3,51.1,34.8,26.1,36.1,27.0,20.5,83,74,53,29.96,29.82,10,2,10,0.00
2013-12-4,57.0,37.1,25.3,35.2,27.2,19.4,82,69,42,30.11,29.95,8,0,8,0.00
2013-12-5,53.1,44.7,37.8,48.7,39.6,30.6,86,82,75,30.11,29.90,5,0,5,0.06
2013-12-6,53.2,43.4,33.8,47.8,35.7,26.1,83,74,62,30.10,29.82,19,6,21,0.44
2013-12-7,39.7,33.4,27.7,26.8,22.1,11.3,75,63,50,30.45,30.02,21,6,21,0.02
2013-12-8,32.9,27.2,19.0,18.7,15.2,10.2,75,61,48,30.54,30.35,9,1,9,0.00
2013-12-9,36.7,31.5,26.4,29.3,24.7,17.8,80,76,69,30.35,29.87,9,2,9,0.05
2013-12-10,36.0,32.0,26.2,29.1,23.7,10.8,79,71,51,30.01,29.77,17,4,17,0.02
2013-12-11,32.5,27.3,23.9,17.1,10.8,7.0,61,49,42,30.20,30.00,27,6,27,0.00
2013-12-12,28.9,21.7,13.8,11.8,3.8,-5.6,60,46,26,30.26,30.04,27,5,27,0.00
2013-12-13,35.6,25.6,19.6,13.8,5.8,-1.7,56,43,34,30.29,29.99,31,9,31,0.00
2013-12-14,22.5,18.5,14.4,14.9,7.5,2.5,74,62,46,30.47,29.88,13,3,13,0.00
2013-12-15,34.2,29.8,22.3,25.9,21.3,13.3,80,71,54,29.88,22.91,15,4,15,0.00
2013-12-16,32.2,23.9,14.2,18.1,-2.9,-99.9,64,39,24,30.16,29.72,27,-71,27,0.00
2013-12-17,21.4,9.7,17.2,13.5,-44.4,-99.9,77,35,63,30.18,29.87,10,-498,10,0.00
2013-12-18,40.8,27.7,18.1,23.9,15.2,9.0,73,60,43,30.07,29.85,22,5,22,0.04
2013-12-19,50.9,34.5,25.2,25.5,19.5,12.7,75,55,30,30.09,29.92,17,3,17,0.04
2013-12-20,54.3,39.9,28.8,32.2,27.2,22.8,79,62,37,30.05,29.89,15,2,15,0.00
2013-12-21,64.0,44.7,32.0,44.6,35.0,26.1,88,70,44,29.95,29.82,13,1,13,0.00
2013-12-23,50.0,44.2,36.5,46.0,38.7,24.8,87,81,64,30.10,29.89,21,8,21,0.17
2013-12-24,37.6,31.4,23.9,25.0,16.9,-4.5,71,55,28,30.25,30.03,25,9,25,0.00
2013-12-25,27.0,20.2,15.8,9.5,-0.9,-8.3,61,40,24,30.45,30.24,24,5,24,0.00
2013-12-26,40.1,27.1,19.2,28.0,17.2,6.4,79,66,55,30.38,30.07,15,1,15,0.01
2013-12-27,41.9,30.8,19.8,21.0,16.4,7.9,80,56,29,30.26,30.17,20,4,20,0.00
2013-12-28,55.6,33.7,19.8,25.5,20.2,14.5,81,61,26,30.20,29.98,14,2,14,0.00
2013-12-29,40.5,34.1,27.3,37.9,28.8,20.3,91,81,70,30.00,29.41,19,3,22,0.89
2013-12-30,41.7,30.0,16.2,34.5,19.2,0.9,88,65,43,30.14,29.60,22,5,22,0.00
2013-12-31,29.7,21.8,12.7,17.1,6.0,0.3,68,51,34,30.17,29.97,52,4,52,0.00
2014-1-1,33.4,25.0,19.2,15.3,6.4,-1.1,65,45,29,30.32,30.16,24,4,24,0.00
2014-1-2,24.6,19.3,10.6,15.4,9.4,-99.9,73,66,59,30.23,29.69,15,-3,15,0.00